Time;durP1;ratioP1;P1;durP2;ratioP2;P2;SDS_P1;SDS_P2;PMS_P1;PMS_P2;Temp;Humidity;BMP_temperature;BMP_pressure;BME280_temperature;BME280_humidity;BME280_pressure;Samples;Min_cycle;Max_cycle;Signal;HPM_P1;HPM_P2
2023/04/06 00:00:37;;;;;;;;;;;1.90;66.50;;;;;;4952352;28;19942;-80
2023/04/06 00:03:02;;;;;;;;;;;1.90;66.60;;;;;;4966177;28;19929;-79
2023/04/06 00:05:30;;;;;;;;;;;1.80;66.60;;;;;;4969052;28;20009;-81
2023/04/06 00:07:57;;;;;;;;;;;1.80;66.60;;;;;;4976609;28;19933;-81
2023/04/06 00:10:22;;;;;;;;;;;1.80;66.70;;;;;;4964861;28;19926;-83
2023/04/06 00:12:47;;;;;;;;;;;1.70;66.70;;;;;;4962807;28;19961;-80
2023/04/06 00:15:13;;;;;;;;;;;1.70;66.70;;;;;;4963237;28;20444;-79
2023/04/06 00:17:38;;;;;;;;;;;1.70;66.80;;;;;;4962633;28;19922;-81
2023/04/06 00:20:04;;;;;;;;;;;1.60;66.70;;;;;;4976806;28;19931;-81
2023/04/06 00:22:30;;;;;;;;;;;1.60;66.80;;;;;;4964482;28;19933;-80
2023/04/06 00:24:55;;;;;;;;;;;1.60;66.80;;;;;;4969328;28;19922;-79
2023/04/06 00:27:21;;;;;;;;;;;1.50;66.80;;;;;;4952171;28;19923;-81
2023/04/06 00:29:46;;;;;;;;;;;1.50;66.80;;;;;;4969068;28;19926;-80
2023/04/06 00:32:11;;;;;;;;;;;1.50;66.80;;;;;;4978972;28;19965;-81
2023/04/06 00:34:37;;;;;;;;;;;1.40;66.80;;;;;;4964652;28;20444;-81
2023/04/06 00:37:02;;;;;;;;;;;1.40;66.80;;;;;;4965723;28;19933;-80
2023/04/06 00:39:28;;;;;;;;;;;1.40;66.90;;;;;;4974132;28;19925;-79
2023/04/06 00:41:53;;;;;;;;;;;1.40;66.90;;;;;;4963186;28;19934;-81
2023/04/06 00:44:19;;;;;;;;;;;1.30;66.90;;;;;;4973276;28;20381;-81
2023/04/06 00:46:45;;;;;;;;;;;1.30;67.00;;;;;;4960755;28;20753;-80
2023/04/06 00:49:10;;;;;;;;;;;1.30;67.00;;;;;;4966204;28;19922;-79
2023/04/06 00:51:36;;;;;;;;;;;1.30;67.10;;;;;;4976558;28;19926;-82
2023/04/06 00:54:01;;;;;;;;;;;1.20;67.00;;;;;;4968167;28;19922;-79
2023/04/06 00:56:27;;;;;;;;;;;1.20;67.00;;;;;;4966992;28;19922;-81
2023/04/06 00:58:52;;;;;;;;;;;1.20;67.10;;;;;;4952009;28;19933;-81
2023/04/06 01:01:18;;;;;;;;;;;1.10;67.10;;;;;;4964171;28;20392;-81
2023/04/06 01:03:44;;;;;;;;;;;1.10;67.10;;;;;;4964309;28;19922;-81
2023/04/06 01:06:10;;;;;;;;;;;1.10;67.10;;;;;;4958528;28;19922;-81
2023/04/06 01:08:36;;;;;;;;;;;1.10;67.20;;;;;;4958963;28;19922;-79
2023/04/06 01:11:01;;;;;;;;;;;1.10;67.20;;;;;;4974068;28;19933;-82
2023/04/06 01:13:27;;;;;;;;;;;1.00;67.20;;;;;;4961089;28;19930;-82
2023/04/06 01:15:52;;;;;;;;;;;1.00;67.30;;;;;;4951801;28;20565;-79
2023/04/06 01:18:18;;;;;;;;;;;1.00;67.20;;;;;;4965472;28;19978;-82
2023/04/06 01:20:43;;;;;;;;;;;0.90;67.20;;;;;;4961468;28;20411;-82
2023/04/06 01:23:09;;;;;;;;;;;0.90;67.20;;;;;;4958717;28;19923;-80
2023/04/06 01:25:34;;;;;;;;;;;0.90;67.30;;;;;;4972347;28;19926;-79
2023/04/06 01:28:00;;;;;;;;;;;0.90;67.30;;;;;;4977060;28;19926;-81
2023/04/06 01:30:26;;;;;;;;;;;0.90;67.30;;;;;;4978604;28;19988;-81
2023/04/06 01:32:51;;;;;;;;;;;0.80;67.30;;;;;;4995200;28;20746;-81
2023/04/06 01:35:18;;;;;;;;;;;0.80;67.30;;;;;;4973316;28;19926;-81
2023/04/06 01:37:43;;;;;;;;;;;0.80;67.40;;;;;;4970134;28;20382;-81
2023/04/06 01:40:09;;;;;;;;;;;0.80;67.40;;;;;;4975564;28;20026;-80
2023/04/06 01:42:34;;;;;;;;;;;0.70;67.40;;;;;;4966898;28;19945;-79
2023/04/06 01:45:00;;;;;;;;;;;0.70;67.40;;;;;;4952648;28;19958;-81
2023/04/06 01:47:25;;;;;;;;;;;0.70;67.40;;;;;;4964484;28;19922;-78
2023/04/06 01:49:51;;;;;;;;;;;0.70;67.40;;;;;;4978282;28;19922;-82
2023/04/06 01:52:16;;;;;;;;;;;0.60;67.40;;;;;;4951416;28;19926;-80
2023/04/06 01:54:42;;;;;;;;;;;0.60;67.40;;;;;;4978344;28;19930;-81
2023/04/06 01:57:07;;;;;;;;;;;0.60;67.50;;;;;;4981731;28;19941;-83
2023/04/06 01:59:32;;;;;;;;;;;0.60;67.50;;;;;;4965026;28;19923;-82
2023/04/06 02:01:58;;;;;;;;;;;0.50;67.50;;;;;;4964253;28;20530;-80
2023/04/06 02:04:24;;;;;;;;;;;0.50;67.50;;;;;;4966179;28;19937;-81
2023/04/06 02:06:50;;;;;;;;;;;0.50;67.50;;;;;;4951672;28;19922;-82
2023/04/06 02:09:15;;;;;;;;;;;0.50;67.60;;;;;;4965231;28;20447;-82
2023/04/06 02:11:41;;;;;;;;;;;0.40;67.50;;;;;;4964867;28;19926;-82
2023/04/06 02:14:06;;;;;;;;;;;0.40;67.60;;;;;;4951227;28;19929;-79
2023/04/06 02:16:32;;;;;;;;;;;0.40;67.60;;;;;;4977506;28;20408;-83
2023/04/06 02:18:57;;;;;;;;;;;0.30;67.60;;;;;;4961883;28;19922;-82
2023/04/06 02:21:22;;;;;;;;;;;0.30;67.60;;;;;;4978825;28;19927;-79
2023/04/06 02:23:49;;;;;;;;;;;0.30;67.60;;;;;;4971855;28;19922;-81
2023/04/06 02:26:14;;;;;;;;;;;0.30;67.70;;;;;;4973202;28;20437;-81
2023/04/06 02:28:40;;;;;;;;;;;0.30;67.70;;;;;;4975380;28;19985;-82
2023/04/06 02:31:05;;;;;;;;;;;0.30;67.70;;;;;;4974732;28;20008;-82
2023/04/06 02:33:31;;;;;;;;;;;0.20;67.70;;;;;;4958172;28;19922;-81
2023/04/06 02:35:56;;;;;;;;;;;0.20;67.80;;;;;;4964952;28;19922;-81
2023/04/06 02:38:22;;;;;;;;;;;0.20;67.80;;;;;;4967895;28;19952;-80
2023/04/06 02:40:47;;;;;;;;;;;0.20;67.80;;;;;;4959235;28;19922;-80
2023/04/06 02:43:13;;;;;;;;;;;0.10;67.70;;;;;;4964754;28;19922;-82
2023/04/06 02:45:38;;;;;;;;;;;0.10;67.80;;;;;;4963148;28;19925;-79
2023/04/06 02:48:04;;;;;;;;;;;0.10;67.80;;;;;;4977508;28;19933;-79
2023/04/06 02:50:29;;;;;;;;;;;0.10;67.90;;;;;;4991569;28;19925;-81
2023/04/06 02:52:55;;;;;;;;;;;0.00;67.80;;;;;;4983334;28;19926;-82
2023/04/06 02:55:20;;;;;;;;;;;0.00;67.90;;;;;;4978491;28;20182;-80
2023/04/06 02:57:46;;;;;;;;;;;0.00;67.90;;;;;;4984052;28;19972;-81
2023/04/06 03:00:12;;;;;;;;;;;0.00;68.00;;;;;;4986057;28;19921;-82
2023/04/06 03:02:37;;;;;;;;;;;-0.10;67.90;;;;;;4983542;28;19925;-83
2023/04/06 03:05:03;;;;;;;;;;;-0.10;67.90;;;;;;4975359;28;20563;-80
2023/04/06 03:07:29;;;;;;;;;;;-0.10;68.00;;;;;;4997594;28;19922;-79
2023/04/06 03:09:54;;;;;;;;;;;-0.10;68.00;;;;;;4968193;28;19932;-80
2023/04/06 03:12:20;;;;;;;;;;;-0.10;68.10;;;;;;4959966;28;20036;-81
2023/04/06 03:14:46;;;;;;;;;;;-0.20;68.00;;;;;;4963530;28;19972;-81
2023/04/06 03:17:11;;;;;;;;;;;-0.20;68.00;;;;;;4966564;28;19924;-78
2023/04/06 03:19:36;;;;;;;;;;;-0.20;68.00;;;;;;4966452;28;19965;-81
2023/04/06 03:22:02;;;;;;;;;;;-0.30;68.00;;;;;;4964261;28;19926;-82
2023/04/06 03:24:27;;;;;;;;;;;-0.20;68.10;;;;;;4955521;28;20167;-81
2023/04/06 03:26:53;;;;;;;;;;;-0.20;68.10;;;;;;4961904;28;19930;-81
2023/04/06 03:29:18;;;;;;;;;;;-0.30;68.10;;;;;;4963240;28;19972;-82
2023/04/06 03:31:44;;;;;;;;;;;-0.30;68.10;;;;;;4972600;28;19933;-79
2023/04/06 03:34:09;;;;;;;;;;;-0.30;68.10;;;;;;4965098;28;19932;-82
2023/04/06 03:36:35;;;;;;;;;;;-0.30;68.20;;;;;;4965318;28;20399;-78
2023/04/06 03:39:00;;;;;;;;;;;-0.40;68.20;;;;;;4985896;28;19926;-82
2023/04/06 03:41:26;;;;;;;;;;;-0.40;68.20;;;;;;4953953;28;19941;-76
2023/04/06 03:43:52;;;;;;;;;;;-0.40;68.20;;;;;;4962144;28;19930;-82
2023/04/06 03:46:17;;;;;;;;;;;-0.40;68.20;;;;;;4962277;28;19930;-80
2023/04/06 03:48:42;;;;;;;;;;;-0.40;69.00;;;;;;4975492;28;19922;-80
2023/04/06 03:51:08;;;;;;;;;;;-0.50;68.20;;;;;;4953537;28;20388;-80
2023/04/06 03:53:33;;;;;;;;;;;-0.50;68.30;;;;;;4968826;28;19929;-82
2023/04/06 03:55:59;;;;;;;;;;;-0.50;68.20;;;;;;4966787;28;19929;-83
2023/04/06 03:58:25;;;;;;;;;;;-0.50;68.30;;;;;;4968113;28;19926;-82
2023/04/06 04:00:50;;;;;;;;;;;-0.60;68.30;;;;;;4968628;28;20177;-83
2023/04/06 04:03:15;;;;;;;;;;;-0.60;68.30;;;;;;4978964;28;19922;-81
2023/04/06 04:05:41;;;;;;;;;;;-0.60;68.30;;;;;;4980675;28;19918;-85
2023/04/06 04:08:07;;;;;;;;;;;-0.60;68.40;;;;;;4977941;28;19933;-84
2023/04/06 04:10:32;;;;;;;;;;;-0.60;68.40;;;;;;4971199;28;19930;-82
2023/04/06 04:12:58;;;;;;;;;;;-0.70;68.40;;;;;;4967106;28;20575;-83
2023/04/06 04:15:23;;;;;;;;;;;-0.70;68.40;;;;;;4978797;28;19923;-83
2023/04/06 04:17:50;;;;;;;;;;;-0.70;68.40;;;;;;4969110;28;19923;-81
2023/04/06 04:20:16;;;;;;;;;;;-0.70;68.40;;;;;;4976198;28;19935;-79
2023/04/06 04:22:41;;;;;;;;;;;-0.70;68.40;;;;;;4976871;28;19956;-84
2023/04/06 04:25:07;;;;;;;;;;;-0.70;68.50;;;;;;4973119;28;20389;-83
2023/04/06 04:27:32;;;;;;;;;;;-0.80;68.40;;;;;;4985187;28;19921;-83
2023/04/06 04:29:58;;;;;;;;;;;-0.80;68.40;;;;;;4998158;28;19932;-83
2023/04/06 04:32:27;;;;;;;;;;;-0.80;68.40;;;;;;4997309;28;19945;-84
2023/04/06 04:34:52;;;;;;;;;;;-0.80;68.50;;;;;;4984331;28;19922;-79
2023/04/06 04:37:18;;;;;;;;;;;-0.80;68.60;;;;;;4987324;28;19946;-83
2023/04/06 04:39:44;;;;;;;;;;;-0.90;68.50;;;;;;5001287;28;20384;-84
2023/04/06 04:42:10;;;;;;;;;;;-0.90;68.50;;;;;;4969854;28;19938;-83
2023/04/06 04:44:35;;;;;;;;;;;-0.90;68.60;;;;;;4964274;28;19934;-83
2023/04/06 04:47:01;;;;;;;;;;;-0.90;68.70;;;;;;4978918;28;20399;-83
2023/04/06 04:49:26;;;;;;;;;;;-0.90;68.60;;;;;;4969747;28;20426;-84
2023/04/06 04:51:52;;;;;;;;;;;-0.90;68.70;;;;;;4968102;28;20246;-83
2023/04/06 04:54:18;;;;;;;;;;;-1.00;68.60;;;;;;4967196;28;19926;-84
2023/04/06 04:56:43;;;;;;;;;;;-1.00;68.60;;;;;;4966194;28;19926;-81
2023/04/06 04:59:09;;;;;;;;;;;-1.00;68.60;;;;;;4972381;28;20008;-82
2023/04/06 05:01:34;;;;;;;;;;;-1.00;68.60;;;;;;4962222;28;19936;-81
2023/04/06 05:04:00;;;;;;;;;;;-1.00;68.70;;;;;;4968358;28;19926;-85
2023/04/06 05:06:25;;;;;;;;;;;-1.00;68.70;;;;;;4980488;28;19922;-82
2023/04/06 05:08:50;;;;;;;;;;;-1.00;68.70;;;;;;4965196;28;19922;-83
2023/04/06 05:11:16;;;;;;;;;;;-1.10;68.70;;;;;;4968372;28;20003;-83
2023/04/06 05:13:41;;;;;;;;;;;-1.10;68.70;;;;;;4964446;28;19938;-83
2023/04/06 05:16:07;;;;;;;;;;;-1.10;68.70;;;;;;4965863;28;19921;-84
2023/04/06 05:18:32;;;;;;;;;;;-1.10;68.80;;;;;;4964837;28;19922;-83
2023/04/06 05:20:58;;;;;;;;;;;-1.10;68.80;;;;;;4981155;28;19918;-83
2023/04/06 05:23:23;;;;;;;;;;;-1.10;68.80;;;;;;4963671;28;19986;-78
2023/04/06 05:25:49;;;;;;;;;;;-1.10;68.80;;;;;;4975096;28;19929;-81
2023/04/06 05:28:15;;;;;;;;;;;-1.10;68.80;;;;;;4985667;28;20284;-83
2023/04/06 05:30:41;;;;;;;;;;;-1.10;69.10;;;;;;4983178;28;19930;-85
2023/04/06 05:33:07;;;;;;;;;;;-1.00;68.90;;;;;;4996106;28;19926;-84
2023/04/06 05:35:32;;;;;;;;;;;-1.10;68.80;;;;;;4979410;28;19929;-84
2023/04/06 05:37:58;;;;;;;;;;;-1.00;68.90;;;;;;4988189;28;20362;-80
2023/04/06 05:40:23;;;;;;;;;;;-1.00;68.90;;;;;;4995846;28;19928;-82
2023/04/06 05:42:49;;;;;;;;;;;-1.00;68.90;;;;;;4989684;28;19930;-81
2023/04/06 05:45:16;;;;;;;;;;;-1.00;68.90;;;;;;4969333;28;20969;-82
2023/04/06 05:47:42;;;;;;;;;;;-0.90;69.10;;;;;;4970551;28;19993;-83
2023/04/06 05:50:08;;;;;;;;;;;-0.90;69.80;;;;;;4964677;28;20021;-85
2023/04/06 05:52:33;;;;;;;;;;;-0.90;68.90;;;;;;4964616;28;20715;-81
2023/04/06 05:54:59;;;;;;;;;;;-0.90;69.00;;;;;;4960951;28;19928;-82
2023/04/06 05:57:24;;;;;;;;;;;-0.90;69.00;;;;;;4966977;28;19922;-81
2023/04/06 05:59:49;;;;;;;;;;;-0.80;69.00;;;;;;4959642;28;19929;-82
2023/04/06 06:02:15;;;;;;;;;;;-0.80;69.00;;;;;;4961613;28;19922;-79
2023/04/06 06:04:40;;;;;;;;;;;-0.70;69.00;;;;;;4961564;28;19917;-82
2023/04/06 06:07:06;;;;;;;;;;;-0.70;69.00;;;;;;4976226;28;20412;-81
2023/04/06 06:09:31;;;;;;;;;;;-0.60;69.00;;;;;;4976591;28;19922;-81
2023/04/06 06:11:57;;;;;;;;;;;-0.60;69.00;;;;;;4959197;28;19914;-83
2023/04/06 06:14:22;;;;;;;;;;;-0.50;69.10;;;;;;4968485;28;19969;-83
2023/04/06 06:16:48;;;;;;;;;;;-0.50;69.00;;;;;;4979551;28;19926;-81
2023/04/06 06:19:13;;;;;;;;;;;-0.40;69.00;;;;;;4971412;28;19921;-80
2023/04/06 06:21:39;;;;;;;;;;;-0.30;69.10;;;;;;4966390;28;19938;-83
2023/04/06 06:24:05;;;;;;;;;;;-0.30;69.00;;;;;;4976825;28;20297;-83
2023/04/06 06:26:31;;;;;;;;;;;-0.20;69.10;;;;;;4969145;28;19948;-84
2023/04/06 06:28:56;;;;;;;;;;;-0.20;68.90;;;;;;4995462;28;19917;-81
2023/04/06 06:31:22;;;;;;;;;;;-0.10;68.90;;;;;;4986021;28;19917;-83
2023/04/06 06:33:50;;;;;;;;;;;0.00;69.00;;;;;;4986639;28;19940;-84
2023/04/06 06:36:16;;;;;;;;;;;0.10;68.90;;;;;;4986639;28;19925;-81
2023/04/06 06:38:41;;;;;;;;;;;0.20;68.90;;;;;;4985027;28;20315;-83
2023/04/06 06:41:07;;;;;;;;;;;0.30;68.90;;;;;;5002542;28;19981;-84
2023/04/06 06:43:34;;;;;;;;;;;0.40;68.90;;;;;;4982660;28;22495;-81
2023/04/06 06:46:00;;;;;;;;;;;0.50;68.90;;;;;;4998933;28;19924;-83
2023/04/06 06:48:25;;;;;;;;;;;0.50;68.80;;;;;;4998676;28;19918;-81
2023/04/06 06:50:51;;;;;;;;;;;0.60;68.80;;;;;;4987756;28;20431;-83
2023/04/06 06:53:16;;;;;;;;;;;0.70;68.80;;;;;;4989840;28;20713;-83
2023/04/06 06:55:44;;;;;;;;;;;0.80;68.70;;;;;;4988168;28;19952;-84
2023/04/06 06:58:09;;;;;;;;;;;0.90;68.70;;;;;;4984224;28;19926;-83
2023/04/06 07:00:35;;;;;;;;;;;1.00;68.70;;;;;;4986256;28;19933;-81
2023/04/06 07:03:00;;;;;;;;;;;1.20;68.70;;;;;;4984253;28;19936;-82
2023/04/06 07:05:26;;;;;;;;;;;1.30;68.60;;;;;;4973940;28;20466;-81
2023/04/06 07:07:52;;;;;;;;;;;1.40;68.50;;;;;;4991117;28;20822;-82
2023/04/06 07:10:17;;;;;;;;;;;1.50;68.50;;;;;;4985786;28;19921;-80
2023/04/06 07:12:42;;;;;;;;;;;1.70;68.50;;;;;;4990558;28;20381;-83
2023/04/06 07:15:08;;;;;;;;;;;1.80;68.40;;;;;;4989318;28;19952;-81
2023/04/06 07:17:34;;;;;;;;;;;2.00;68.40;;;;;;4984668;28;19928;-82
2023/04/06 07:19:59;;;;;;;;;;;2.20;68.30;;;;;;4971938;28;19987;-83
2023/04/06 07:22:25;;;;;;;;;;;2.30;68.20;;;;;;4988193;28;19936;-83
2023/04/06 07:24:50;;;;;;;;;;;2.50;68.10;;;;;;4969174;28;19922;-83
2023/04/06 07:27:16;;;;;;;;;;;2.60;68.10;;;;;;4968610;28;19975;-82
2023/04/06 07:29:42;;;;;;;;;;;2.80;68.00;;;;;;4984816;28;19922;-83
2023/04/06 07:32:07;;;;;;;;;;;2.90;68.00;;;;;;4984103;28;20387;-82
2023/04/06 07:34:33;;;;;;;;;;;3.10;67.80;;;;;;4982193;28;19922;-81
2023/04/06 07:37:00;;;;;;;;;;;3.30;67.70;;;;;;4977988;28;19930;-81
2023/04/06 07:39:26;;;;;;;;;;;3.40;67.60;;;;;;4980306;28;19918;-81
2023/04/06 07:41:52;;;;;;;;;;;3.60;67.50;;;;;;4978438;28;19976;-82
2023/04/06 07:44:17;;;;;;;;;;;3.80;67.50;;;;;;4965603;28;19918;-80
2023/04/06 07:46:43;;;;;;;;;;;3.90;67.30;;;;;;4950462;28;19964;-81
2023/04/06 07:49:09;;;;;;;;;;;4.10;67.30;;;;;;4978441;28;19968;-81
2023/04/06 07:51:37;;;;;;;;;;;4.30;67.20;;;;;;4965501;28;19918;-80
2023/04/06 07:54:03;;;;;;;;;;;4.40;67.10;;;;;;4962654;28;19926;-81
2023/04/06 07:56:28;;;;;;;;;;;4.60;67.00;;;;;;4961229;28;20050;-82
2023/04/06 07:58:56;;;;;;;;;;;4.80;66.90;;;;;;4959161;28;19926;-80
2023/04/06 08:01:21;;;;;;;;;;;5.00;66.80;;;;;;4973141;28;19977;-81
2023/04/06 08:03:47;;;;;;;;;;;5.20;66.70;;;;;;4977994;28;19950;-81
2023/04/06 08:06:12;;;;;;;;;;;5.40;66.50;;;;;;4958411;28;19923;-82
2023/04/06 08:08:38;;;;;;;;;;;5.60;66.40;;;;;;4964396;28;20296;-80
2023/04/06 08:11:03;;;;;;;;;;;5.70;66.30;;;;;;4973039;28;19919;-81
2023/04/06 08:13:29;;;;;;;;;;;5.90;66.20;;;;;;4961588;28;20149;-79
2023/04/06 08:15:54;;;;;;;;;;;6.10;66.10;;;;;;4969383;28;20259;-80
2023/04/06 08:18:20;;;;;;;;;;;6.30;66.00;;;;;;4964801;28;19922;-81
2023/04/06 08:20:45;;;;;;;;;;;6.50;65.80;;;;;;4984331;28;19950;-83
2023/04/06 08:23:11;;;;;;;;;;;6.70;65.80;;;;;;4966187;28;19983;-82
2023/04/06 08:25:36;;;;;;;;;;;6.90;65.60;;;;;;4980816;28;20554;-81
2023/04/06 08:28:02;;;;;;;;;;;7.10;65.40;;;;;;4963635;28;19926;-82
2023/04/06 08:30:28;;;;;;;;;;;7.30;65.30;;;;;;4974429;28;19907;-83
2023/04/06 08:32:54;;;;;;;;;;;7.50;65.20;;;;;;4961964;28;20029;-83
2023/04/06 08:35:19;;;;;;;;;;;7.70;65.10;;;;;;4964800;28;19926;-81
2023/04/06 08:37:45;;;;;;;;;;;7.90;64.90;;;;;;4961923;28;19986;-80
2023/04/06 08:40:11;;;;;;;;;;;8.10;64.80;;;;;;4980474;28;19945;-81
2023/04/06 08:42:39;;;;;;;;;;;8.30;64.70;;;;;;4965593;28;19985;-81
2023/04/06 08:45:05;;;;;;;;;;;8.50;64.50;;;;;;4985307;28;19976;-83
2023/04/06 08:47:30;;;;;;;;;;;8.70;64.40;;;;;;4980828;28;20543;-83
2023/04/06 08:49:56;;;;;;;;;;;8.90;64.30;;;;;;4978770;28;19949;-82
2023/04/06 08:52:21;;;;;;;;;;;9.10;64.10;;;;;;4968055;28;20004;-81
2023/04/06 08:54:47;;;;;;;;;;;9.30;64.00;;;;;;4978764;28;19926;-81
2023/04/06 08:57:12;;;;;;;;;;;9.50;63.80;;;;;;4953160;28;19935;-82
2023/04/06 08:59:38;;;;;;;;;;;9.70;63.70;;;;;;4964713;28;19958;-80
2023/04/06 09:02:04;;;;;;;;;;;9.90;63.60;;;;;;4976768;28;19922;-82
2023/04/06 09:04:30;;;;;;;;;;;10.10;63.40;;;;;;4973042;28;19997;-82
2023/04/06 09:06:55;;;;;;;;;;;10.30;63.30;;;;;;4962440;28;19954;-81
2023/04/06 09:09:21;;;;;;;;;;;10.60;63.90;;;;;;4974576;28;19930;-82
2023/04/06 09:11:50;;;;;;;;;;;10.80;62.90;;;;;;4973218;28;19926;-80
2023/04/06 09:14:16;;;;;;;;;;;11.00;62.70;;;;;;4975047;28;20455;-80
2023/04/06 09:16:42;;;;;;;;;;;11.20;62.50;;;;;;4980702;28;19921;-82
2023/04/06 09:19:07;;;;;;;;;;;11.40;62.40;;;;;;4983295;28;19988;-81
2023/04/06 09:21:33;;;;;;;;;;;11.70;62.30;;;;;;4967628;28;19933;-80
2023/04/06 09:24:01;;;;;;;;;;;11.80;62.00;;;;;;4975562;28;19922;-80
2023/04/06 09:26:27;;;;;;;;;;;12.00;61.90;;;;;;4973447;28;19922;-80
2023/04/06 09:28:57;;;;;;;;;;;12.30;61.70;;;;;;4956557;28;20391;-82
2023/04/06 09:31:26;;;;;;;;;;;12.50;61.60;;;;;;4957766;28;19922;-82
2023/04/06 09:33:52;;;;;;;;;;;12.70;61.40;;;;;;4978005;28;19969;-80
2023/04/06 09:36:17;;;;;;;;;;;12.90;61.30;;;;;;4963212;28;19950;-80
2023/04/06 09:38:54;;;;;;;;;;;13.10;61.20;;;;;;4957267;28;20010;-80
2023/04/06 09:41:29;;;;;;;;;;;13.30;61.00;;;;;;4958220;28;19929;-83
2023/04/06 09:44:04;;;;;;;;;;;13.50;60.80;;;;;;4959810;28;20884;-81
2023/04/06 09:46:33;;;;;;;;;;;13.80;60.60;;;;;;4976900;28;19944;-81
2023/04/06 09:49:00;;;;;;;;;;;14.00;60.40;;;;;;4950953;28;19922;-82
2023/04/06 09:51:26;;;;;;;;;;;14.20;60.20;;;;;;4962745;28;20380;-82
2023/04/06 09:53:54;;;;;;;;;;;14.40;60.00;;;;;;4972379;28;19922;-81
2023/04/06 09:56:20;;;;;;;;;;;14.60;59.90;;;;;;4964784;28;19918;-81
2023/04/06 09:58:46;;;;;;;;;;;14.80;59.80;;;;;;4963502;28;19919;-81
2023/04/06 10:01:15;;;;;;;;;;;14.90;59.60;;;;;;4972078;28;19925;-81
2023/04/06 10:03:45;;;;;;;;;;;15.10;59.50;;;;;;4974598;28;19921;-80
2023/04/06 10:06:11;;;;;;;;;;;15.40;59.50;;;;;;4966514;28;19919;-81
2023/04/06 10:08:36;;;;;;;;;;;15.60;59.30;;;;;;4953605;28;19929;-80
2023/04/06 10:11:02;;;;;;;;;;;15.70;59.70;;;;;;4964982;28;19918;-82
2023/04/06 10:13:27;;;;;;;;;;;15.90;59.00;;;;;;4961245;28;20347;-82
2023/04/06 10:15:53;;;;;;;;;;;16.10;58.90;;;;;;4958673;28;20629;-79
2023/04/06 10:18:20;;;;;;;;;;;16.20;58.70;;;;;;4966955;28;19929;-82
2023/04/06 10:20:53;;;;;;;;;;;16.40;58.70;;;;;;4959285;28;19926;-79
2023/04/06 10:23:21;;;;;;;;;;;16.60;58.60;;;;;;4958781;28;19926;-82
2023/04/06 10:25:54;;;;;;;;;;;16.80;58.40;;;;;;4958973;28;19922;-82
2023/04/06 10:28:20;;;;;;;;;;;17.00;58.30;;;;;;4953928;28;19929;-81
2023/04/06 10:30:45;;;;;;;;;;;17.20;58.20;;;;;;4966281;28;19922;-82
2023/04/06 10:33:14;;;;;;;;;;;17.40;58.10;;;;;;4965475;28;19928;-81
2023/04/06 10:35:39;;;;;;;;;;;17.60;57.90;;;;;;4960243;28;19949;-81
2023/04/06 10:38:05;;;;;;;;;;;17.80;57.80;;;;;;4967215;28;19969;-82
2023/04/06 10:40:31;;;;;;;;;;;18.00;57.60;;;;;;4965702;28;19928;-83
2023/04/06 10:43:06;;;;;;;;;;;18.10;57.50;;;;;;4979091;28;19950;-83
2023/04/06 10:45:32;;;;;;;;;;;18.20;57.40;;;;;;4963733;28;20547;-83
2023/04/06 10:47:57;;;;;;;;;;;18.30;57.30;;;;;;4965289;28;19962;-82
2023/04/06 10:50:23;;;;;;;;;;;18.50;57.20;;;;;;4962717;28;19928;-82
2023/04/06 10:53:01;;;;;;;;;;;18.60;57.20;;;;;;4975405;28;19928;-83
2023/04/06 10:55:27;;;;;;;;;;;18.80;57.10;;;;;;4967783;28;19984;-82
2023/04/06 10:57:53;;;;;;;;;;;19.00;56.90;;;;;;4973652;28;20548;-81
2023/04/06 11:00:19;;;;;;;;;;;19.20;56.70;;;;;;4967995;28;19964;-82
2023/04/06 11:02:45;;;;;;;;;;;19.30;56.50;;;;;;4958730;28;20441;-80
2023/04/06 11:05:11;;;;;;;;;;;19.30;56.30;;;;;;4962646;28;19933;-81
2023/04/06 11:07:36;;;;;;;;;;;19.40;56.20;;;;;;4961018;28;19977;-79
2023/04/06 11:10:02;;;;;;;;;;;19.50;56.30;;;;;;4974157;28;19933;-79
2023/04/06 11:12:28;;;;;;;;;;;19.60;56.30;;;;;;4971016;28;19952;-82
2023/04/06 11:15:04;;;;;;;;;;;19.70;56.20;;;;;;4976220;28;19926;-80
2023/04/06 11:17:30;;;;;;;;;;;19.70;55.90;;;;;;4969606;28;19929;-82
2023/04/06 11:19:55;;;;;;;;;;;19.80;56.00;;;;;;4975748;28;19922;-80
2023/04/06 11:22:21;;;;;;;;;;;19.80;56.00;;;;;;4963209;28;20155;-81
2023/04/06 11:24:46;;;;;;;;;;;19.90;55.90;;;;;;4964452;28;19925;-80
2023/04/06 11:27:12;;;;;;;;;;;19.90;55.80;;;;;;4974783;28;19957;-82
2023/04/06 11:29:40;;;;;;;;;;;20.10;55.80;;;;;;4950165;28;20017;-81
2023/04/06 11:32:06;;;;;;;;;;;20.30;55.80;;;;;;4977427;28;19934;-81
2023/04/06 11:34:33;;;;;;;;;;;20.40;55.70;;;;;;4964598;28;19922;-82
2023/04/06 11:37:00;;;;;;;;;;;20.60;55.50;;;;;;4960536;28;20013;-83
2023/04/06 11:39:26;;;;;;;;;;;20.70;55.40;;;;;;4965299;28;19931;-82
2023/04/06 11:41:52;;;;;;;;;;;20.90;55.40;;;;;;4964086;28;19942;-83
2023/04/06 11:44:28;;;;;;;;;;;21.00;55.20;;;;;;4971073;28;19977;-80
2023/04/06 11:46:54;;;;;;;;;;;21.20;55.10;;;;;;4960900;28;19922;-79
2023/04/06 11:49:19;;;;;;;;;;;21.20;54.90;;;;;;4956119;28;19930;-80
2023/04/06 11:51:45;;;;;;;;;;;21.30;54.90;;;;;;4973125;28;19927;-82
2023/04/06 11:54:11;;;;;;;;;;;21.40;54.80;;;;;;4973878;28;20025;-82
2023/04/06 11:56:36;;;;;;;;;;;21.50;54.80;;;;;;4963701;28;19958;-80
2023/04/06 11:59:02;;;;;;;;;;;21.50;54.60;;;;;;4971325;28;19919;-81
2023/04/06 12:01:28;;;;;;;;;;;21.60;54.70;;;;;;4976085;28;19925;-80
2023/04/06 12:03:53;;;;;;;;;;;21.60;54.40;;;;;;4967685;28;19930;-82
2023/04/06 12:06:19;;;;;;;;;;;21.60;54.50;;;;;;4957791;28;19934;-80
2023/04/06 12:08:45;;;;;;;;;;;21.70;54.60;;;;;;4982612;28;20069;-82
2023/04/06 12:11:10;;;;;;;;;;;21.70;54.40;;;;;;4963969;28;19922;-79
2023/04/06 12:13:36;;;;;;;;;;;21.80;54.40;;;;;;4973144;28;20401;-79
2023/04/06 12:16:01;;;;;;;;;;;21.90;54.40;;;;;;4962807;28;20032;-83
2023/04/06 12:18:27;;;;;;;;;;;22.10;54.30;;;;;;4966332;28;19926;-81
2023/04/06 12:20:52;;;;;;;;;;;22.00;54.00;;;;;;4963042;28;19958;-81
2023/04/06 12:23:18;;;;;;;;;;;22.00;54.20;;;;;;4960444;28;20456;-82
2023/04/06 12:25:44;;;;;;;;;;;22.10;54.20;;;;;;4979900;28;20415;-82
2023/04/06 12:28:10;;;;;;;;;;;22.20;54.20;;;;;;4965789;28;20443;-81
2023/04/06 12:30:35;;;;;;;;;;;22.40;54.10;;;;;;4966787;28;19926;-79
2023/04/06 12:33:01;;;;;;;;;;;22.50;54.00;;;;;;4975091;28;19968;-80
2023/04/06 12:35:26;;;;;;;;;;;22.50;53.80;;;;;;4969922;28;19922;-83
2023/04/06 12:37:52;;;;;;;;;;;22.50;53.70;;;;;;4965887;28;19930;-81
2023/04/06 12:40:17;;;;;;;;;;;22.50;53.90;;;;;;4976326;28;19930;-79
2023/04/06 12:42:43;;;;;;;;;;;22.60;54.00;;;;;;4966156;28;20088;-81
2023/04/06 12:45:09;;;;;;;;;;;22.70;53.90;;;;;;4965700;28;19926;-81
2023/04/06 12:47:35;;;;;;;;;;;22.80;53.80;;;;;;4965027;28;19922;-79
2023/04/06 12:50:01;;;;;;;;;;;22.90;53.70;;;;;;4964174;28;20269;-80
2023/04/06 12:52:30;;;;;;;;;;;23.00;53.60;;;;;;4958467;28;19922;-79
2023/04/06 12:54:55;;;;;;;;;;;23.00;53.40;;;;;;4938768;28;19922;-79
2023/04/06 12:57:21;;;;;;;;;;;22.90;53.30;;;;;;4961638;28;20010;-82
2023/04/06 12:59:47;;;;;;;;;;;22.80;53.40;;;;;;4962941;28;23022;-79
2023/04/06 13:02:12;;;;;;;;;;;22.70;53.60;;;;;;4963600;28;19934;-80
2023/04/06 13:04:38;;;;;;;;;;;22.70;53.70;;;;;;4966707;28;19992;-81
2023/04/06 13:07:03;;;;;;;;;;;22.80;53.70;;;;;;4959963;28;19922;-82
2023/04/06 13:09:29;;;;;;;;;;;22.90;53.70;;;;;;4956337;28;20032;-80
2023/04/06 13:11:55;;;;;;;;;;;23.00;53.60;;;;;;4962412;28;19933;-80
2023/04/06 13:14:20;;;;;;;;;;;23.20;53.50;;;;;;4962736;28;20351;-81
2023/04/06 13:16:46;;;;;;;;;;;23.30;53.40;;;;;;4970929;28;19922;-79
2023/04/06 13:19:11;;;;;;;;;;;23.40;53.30;;;;;;4966018;28;19937;-82
2023/04/06 13:21:37;;;;;;;;;;;23.50;53.20;;;;;;4964507;28;19926;-79
2023/04/06 13:24:02;;;;;;;;;;;23.60;53.00;;;;;;4963791;28;19986;-80
2023/04/06 13:26:28;;;;;;;;;;;23.70;52.90;;;;;;4969702;28;19933;-82
2023/04/06 13:28:56;;;;;;;;;;;23.80;53.00;;;;;;4974895;28;19934;-81
2023/04/06 13:31:21;;;;;;;;;;;23.90;52.90;;;;;;4950116;28;19922;-78
2023/04/06 13:33:46;;;;;;;;;;;24.00;52.90;;;;;;4959972;28;19926;-81
2023/04/06 13:36:12;;;;;;;;;;;24.10;52.80;;;;;;4959226;28;19922;-82
2023/04/06 13:38:38;;;;;;;;;;;24.20;52.70;;;;;;4970557;28;19930;-82
2023/04/06 13:41:04;;;;;;;;;;;24.20;52.60;;;;;;4960458;28;19923;-82
2023/04/06 13:43:30;;;;;;;;;;;24.30;52.40;;;;;;4969233;28;19926;-80
2023/04/06 13:45:57;;;;;;;;;;;24.30;52.40;;;;;;4958532;28;19933;-80
2023/04/06 13:48:23;;;;;;;;;;;24.20;52.40;;;;;;4968550;28;19941;-82
2023/04/06 13:50:49;;;;;;;;;;;24.20;52.30;;;;;;4977880;28;21017;-80
2023/04/06 13:53:14;;;;;;;;;;;24.10;52.30;;;;;;4983266;28;19928;-81
2023/04/06 13:55:40;;;;;;;;;;;24.10;52.50;;;;;;4981832;28;19954;-80
2023/04/06 13:58:05;;;;;;;;;;;24.20;52.50;;;;;;4963431;28;19922;-80
2023/04/06 14:00:31;;;;;;;;;;;24.20;52.50;;;;;;4971766;28;19926;-81
2023/04/06 14:02:56;;;;;;;;;;;24.20;52.40;;;;;;4960629;28;20053;-80
2023/04/06 14:05:23;;;;;;;;;;;24.20;52.50;;;;;;4971128;28;19941;-80
2023/04/06 14:07:49;;;;;;;;;;;24.20;52.40;;;;;;4969347;28;19922;-79
2023/04/06 14:10:14;;;;;;;;;;;24.20;52.50;;;;;;4960025;28;19930;-79
2023/04/06 14:12:44;;;;;;;;;;;24.30;52.50;;;;;;4972390;28;19922;-80